Time;durP1;ratioP1;P1;durP2;ratioP2;P2;SDS_P1;SDS_P2;PMS_P1;PMS_P2;Temp;Humidity;BMP_temperature;BMP_pressure;BME280_temperature;BME280_humidity;BME280_pressure;Samples;Min_cycle;Max_cycle;Signal;HPM_P1;HPM_P2
2021/11/28 00:02:20;;;;;;;;;3.00;1.00;;;;;4.48;81.84;98638.13;5016413;28;45306;-78
2021/11/28 00:04:47;;;;;;;;;0.50;0.25;;;;;4.48;81.83;98642.56;5031704;28;45599;-79
2021/11/28 00:12:38;;;;;;;;;0.25;0.00;;;;;4.46;81.96;98645.28;5016135;28;45198;-79
2021/11/28 00:15:07;;;;;;;;;2.00;1.00;;;;;4.50;81.51;98643.28;5016330;28;45202;-78
2021/11/28 00:17:32;;;;;;;;;2.75;0.50;;;;;4.48;81.73;98650.44;5016295;28;45188;-79
2021/11/28 00:19:58;;;;;;;;;3.25;1.00;;;;;4.46;81.74;98653.19;5016422;28;45118;-79
2021/11/28 00:22:23;;;;;;;;;1.50;1.00;;;;;4.44;81.73;98654.19;5016008;28;45178;-79
2021/11/28 00:24:50;;;;;;;;;1.00;0.00;;;;;4.44;81.89;98660.31;5016207;28;45134;-79
2021/11/28 00:27:15;;;;;;;;;1.50;0.00;;;;;4.45;81.92;98650.63;5016070;28;45202;-78
2021/11/28 00:29:41;;;;;;;;;1.00;1.00;;;;;4.44;81.96;98654.19;5016384;28;45234;-79
2021/11/28 00:32:07;;;;;;;;;0.50;0.50;;;;;4.47;81.53;98659.28;5031220;28;47431;-79
2021/11/28 00:34:32;;;;;;;;;1.00;1.00;;;;;4.46;81.88;98660.19;5015952;28;45482;-79
2021/11/28 00:36:57;;;;;;;;;1.00;0.50;;;;;4.46;81.79;98661.06;5016035;28;45218;-79
2021/11/28 00:39:22;;;;;;;;;1.00;1.00;;;;;4.49;81.68;98663.50;5016415;28;45169;-79
2021/11/28 00:41:48;;;;;;;;;0.00;0.00;;;;;4.50;81.64;98661.72;5015793;28;45289;-79
2021/11/28 00:44:13;;;;;;;;;2.00;0.25;;;;;4.49;81.70;98665.31;5016074;28;45347;-79
2021/11/28 00:46:38;;;;;;;;;2.75;0.75;;;;;4.48;81.64;98661.81;5047512;28;45268;-78
2021/11/28 00:49:11;;;;;;;;;1.00;0.25;;;;;4.46;81.56;98654.94;5015907;28;45236;-79
2021/11/28 00:51:48;;;;;;;;;3.25;1.00;;;;;4.51;81.30;98657.31;5015451;28;46237;-79
2021/11/28 00:54:14;;;;;;;;;0.50;0.00;;;;;4.49;81.39;98660.88;5015801;28;45191;-79
2021/11/28 00:56:40;;;;;;;;;1.00;0.00;;;;;4.45;80.97;98645.38;5015707;28;45295;-79
2021/11/28 00:59:05;;;;;;;;;0.00;0.00;;;;;4.46;81.37;98658.44;5016130;28;45297;-79
2021/11/28 01:01:30;;;;;;;;;1.75;1.00;;;;;4.41;81.36;98651.75;5030474;28;46416;-79
2021/11/28 01:03:56;;;;;;;;;0.25;0.25;;;;;4.41;81.08;98668.38;5018038;28;45230;-79
2021/11/28 01:06:22;;;;;;;;;0.25;0.25;;;;;4.40;80.95;98671.13;5019170;28;45254;-79
2021/11/28 01:08:47;;;;;;;;;1.00;0.00;;;;;4.42;81.37;98674.50;5019671;28;45179;-79
2021/11/28 01:11:12;;;;;;;;;2.00;1.00;;;;;4.38;81.31;98681.72;5019033;28;45201;-79
2021/11/28 01:13:38;;;;;;;;;2.00;1.00;;;;;4.40;81.01;98674.56;5019265;28;45139;-78
2021/11/28 01:16:04;;;;;;;;;0.00;0.00;;;;;4.42;80.91;98675.34;5018957;28;45217;-78
2021/11/28 01:18:32;;;;;;;;;3.75;1.50;;;;;4.41;81.52;98696.50;5019189;28;45283;-78
2021/11/28 01:20:57;;;;;;;;;1.00;0.25;;;;;4.39;80.84;98687.81;5018848;28;47155;-78
2021/11/28 01:23:23;;;;;;;;;0.00;0.00;;;;;4.42;80.82;98690.31;5019033;28;45245;-78
2021/11/28 01:25:48;;;;;;;;;1.75;0.00;;;;;4.42;81.01;98693.78;5018731;28;45169;-78
2021/11/28 01:28:13;;;;;;;;;1.00;1.00;;;;;4.41;81.29;98701.75;5019225;28;45199;-78
2021/11/28 01:30:39;;;;;;;;;0.25;0.25;;;;;4.39;80.69;98706.25;5018774;28;45863;-78
2021/11/28 01:33:04;;;;;;;;;2.00;1.00;;;;;4.43;81.11;98708.63;5018795;28;45223;-78
2021/11/28 01:35:29;;;;;;;;;3.00;0.00;;;;;4.42;80.69;98699.03;5018814;28;45267;-78
2021/11/28 01:37:55;;;;;;;;;0.00;0.00;;;;;4.44;80.53;98702.41;5019136;28;45169;-78
2021/11/28 01:40:21;;;;;;;;;0.00;0.00;;;;;4.44;80.87;98714.72;5018560;28;45290;-78
2021/11/28 01:42:53;;;;;;;;;0.00;0.00;;;;;4.47;80.95;98715.38;5018638;28;45637;-78
2021/11/28 01:45:24;;;;;;;;;1.50;0.00;;;;;4.48;81.17;98718.88;5018667;28;45581;-78
2021/11/28 01:47:52;;;;;;;;;2.25;1.00;;;;;4.47;81.06;98712.75;5018501;28;45276;-78
2021/11/28 01:50:18;;;;;;;;;1.00;1.00;;;;;4.42;80.52;98719.25;5018353;28;46232;-79
2021/11/28 01:52:44;;;;;;;;;1.00;1.00;;;;;4.47;80.43;98735.59;5018624;28;45210;-78
2021/11/28 01:55:17;;;;;;;;;0.25;0.25;;;;;4.42;80.59;98724.50;5018686;28;45266;-78
2021/11/28 01:57:43;;;;;;;;;0.25;0.00;;;;;4.44;80.56;98736.63;5018262;28;45261;-78
2021/11/28 02:00:12;;;;;;;;;1.75;1.00;;;;;4.45;80.59;98727.78;5018350;28;45304;-78
2021/11/28 02:02:38;;;;;;;;;1.00;1.00;;;;;4.48;81.05;98742.56;5049870;28;45612;-78
2021/11/28 02:05:04;;;;;;;;;0.75;0.75;;;;;4.46;80.79;98734.75;5018536;28;45123;-78
2021/11/28 02:07:30;;;;;;;;;0.00;0.00;;;;;4.46;80.83;98740.03;5018055;28;45302;-78
2021/11/28 02:09:56;;;;;;;;;2.00;0.00;;;;;4.51;81.06;98731.00;5018231;28;45210;-78
2021/11/28 02:12:29;;;;;;;;;0.75;0.75;;;;;4.48;80.51;98740.75;5017697;28;45214;-78
2021/11/28 02:14:59;;;;;;;;;1.00;0.00;;;;;4.49;80.34;98747.72;5017827;28;45103;-79
2021/11/28 02:17:24;;;;;;;;;1.00;0.00;;;;;4.48;80.44;98751.28;5017591;28;45224;-79
2021/11/28 02:19:50;;;;;;;;;1.00;0.75;;;;;4.46;80.57;98750.53;5033177;28;46880;-79
2021/11/28 02:22:16;;;;;;;;;1.00;0.25;;;;;4.48;80.35;98745.19;5017841;28;45278;-79
2021/11/28 02:24:41;;;;;;;;;0.00;0.00;;;;;4.48;80.64;98755.72;5018313;28;45244;-79
2021/11/28 02:27:07;;;;;;;;;0.00;0.00;;;;;4.49;80.56;98757.41;5017829;28;45384;-79
2021/11/28 02:29:32;;;;;;;;;0.75;0.00;;;;;4.49;80.82;98760.06;5018024;28;45379;-78
2021/11/28 02:31:58;;;;;;;;;0.25;0.00;;;;;4.48;80.29;98748.66;5017815;28;45159;-79
2021/11/28 02:34:23;;;;;;;;;1.00;0.00;;;;;4.45;80.41;98748.84;5017956;28;45185;-79
2021/11/28 02:36:52;;;;;;;;;0.00;0.00;;;;;4.48;79.96;98750.44;5017904;28;45367;-78
2021/11/28 02:39:19;;;;;;;;;0.00;0.00;;;;;4.48;80.45;98758.34;5017930;28;45718;-78
2021/11/28 02:41:45;;;;;;;;;0.00;0.00;;;;;4.47;80.39;98756.66;5017885;28;45221;-78
2021/11/28 02:44:11;;;;;;;;;0.75;0.75;;;;;4.42;80.42;98763.97;5017859;28;45174;-79
2021/11/28 02:46:36;;;;;;;;;2.00;0.75;;;;;4.45;80.67;98764.63;5017668;28;45175;-79
2021/11/28 02:49:02;;;;;;;;;0.25;0.00;;;;;4.45;80.26;98771.69;5017912;28;45243;-79
2021/11/28 02:51:27;;;;;;;;;0.00;0.00;;;;;4.38;80.50;98750.16;5017715;28;45217;-79
2021/11/28 02:53:52;;;;;;;;;1.75;1.00;;;;;4.46;80.82;98776.00;5017811;28;45219;-79
2021/11/28 02:56:18;;;;;;;;;3.25;0.00;;;;;4.44;80.29;98759.47;5017352;28;45369;-78
2021/11/28 02:58:46;;;;;;;;;1.25;0.50;;;;;4.46;80.38;98762.84;5049386;28;46761;-77
2021/11/28 03:01:15;;;;;;;;;1.50;0.50;;;;;4.44;80.16;98767.34;5017491;28;45451;-77
2021/11/28 03:03:41;;;;;;;;;0.00;0.00;;;;;4.40;80.25;98753.53;5017675;28;45211;-78
2021/11/28 03:06:06;;;;;;;;;2.00;0.00;;;;;4.39;80.22;98758.88;5017110;28;45225;-78
2021/11/28 03:08:32;;;;;;;;;3.00;0.00;;;;;4.37;79.82;98756.34;5016875;28;46291;-78
2021/11/28 03:10:57;;;;;;;;;1.25;0.00;;;;;4.35;79.91;98752.97;5017352;28;45278;-78
2021/11/28 03:13:30;;;;;;;;;0.00;0.00;;;;;4.35;79.93;98752.09;5017336;28;45154;-78
2021/11/28 03:16:17;;;;;;;;;0.75;0.00;;;;;4.36;79.73;98752.03;5016786;28;45332;-78
2021/11/28 03:18:43;;;;;;;;;2.00;0.00;;;;;4.35;79.70;98763.50;5017278;28;45351;-78
2021/11/28 03:21:13;;;;;;;;;2.00;0.75;;;;;4.33;80.05;98773.22;5016939;28;45597;-78
2021/11/28 03:23:41;;;;;;;;;0.50;0.50;;;;;4.32;80.18;98766.31;5017156;28;45298;-78
2021/11/28 03:26:16;;;;;;;;;0.00;0.00;;;;;4.28;79.79;98770.03;5016076;28;45262;-78
2021/11/28 03:28:55;;;;;;;;;1.00;0.00;;;;;4.32;80.05;98771.56;5015963;28;45246;-78
2021/11/28 03:31:23;;;;;;;;;0.00;0.00;;;;;4.27;79.77;98758.66;5016808;28;45210;-77
2021/11/28 03:33:49;;;;;;;;;2.00;0.00;;;;;4.30;80.34;98771.66;5017149;28;45241;-78
2021/11/28 03:36:18;;;;;;;;;1.50;0.00;;;;;4.31;80.09;98775.13;5016831;28;45209;-78
2021/11/28 03:38:44;;;;;;;;;0.75;0.00;;;;;4.30;80.07;98779.56;5016626;28;46769;-78
2021/11/28 03:41:11;;;;;;;;;0.00;0.00;;;;;4.30;79.83;98782.19;5016898;28;45194;-78
2021/11/28 03:43:38;;;;;;;;;1.00;0.00;;;;;4.27;79.75;98782.34;5032048;28;45243;-78
2021/11/28 03:46:04;;;;;;;;;2.50;0.00;;;;;4.25;80.06;98778.13;5016553;28;45131;-79
2021/11/28 03:48:30;;;;;;;;;0.00;0.00;;;;;4.30;80.03;98795.34;5016684;28;45206;-79
2021/11/28 03:50:55;;;;;;;;;0.75;0.00;;;;;4.28;79.81;98775.31;5016867;28;45295;-79
2021/11/28 03:53:20;;;;;;;;;1.00;0.00;;;;;4.30;79.85;98787.44;5015403;28;45274;-79
2021/11/28 03:55:46;;;;;;;;;0.75;0.00;;;;;4.28;79.85;98784.03;5016598;28;45135;-79
2021/11/28 03:58:12;;;;;;;;;1.75;0.00;;;;;4.30;80.05;98794.47;5016398;28;46142;-79
2021/11/28 04:00:38;;;;;;;;;0.25;0.25;;;;;4.31;80.16;98790.91;5016600;28;45242;-79
2021/11/28 04:03:04;;;;;;;;;1.00;0.00;;;;;4.32;79.99;98788.19;5016850;28;45211;-79
2021/11/28 04:05:29;;;;;;;;;0.25;0.00;;;;;4.32;79.85;98803.13;5016363;28;45287;-80
2021/11/28 04:07:55;;;;;;;;;0.00;0.00;;;;;4.32;79.69;98798.72;5016396;28;46142;-79
2021/11/28 04:10:22;;;;;;;;;0.50;0.00;;;;;4.31;79.74;98798.81;5016341;28;45171;-79
2021/11/28 04:12:47;;;;;;;;;0.00;0.00;;;;;4.30;79.95;98797.09;5016395;28;45342;-79
2021/11/28 04:15:13;;;;;;;;;1.00;0.00;;;;;4.32;80.06;98803.97;5016093;28;45253;-79
2021/11/28 04:17:38;;;;;;;;;1.00;1.00;;;;;4.30;79.79;98802.34;5015784;28;45348;-79
2021/11/28 04:20:06;;;;;;;;;1.00;0.00;;;;;4.33;79.89;98807.44;5016312;28;45253;-79
2021/11/28 04:22:32;;;;;;;;;0.00;0.00;;;;;4.31;79.52;98804.06;5016112;28;45156;-79
2021/11/28 04:24:57;;;;;;;;;1.00;0.00;;;;;4.31;79.82;98802.28;5031793;28;45135;-79
2021/11/28 04:27:23;;;;;;;;;0.50;0.00;;;;;4.32;79.49;98809.22;5015988;28;45450;-79
2021/11/28 04:29:49;;;;;;;;;1.00;0.00;;;;;4.35;79.89;98807.34;5016211;28;45241;-79
2021/11/28 04:32:15;;;;;;;;;1.00;0.00;;;;;4.32;79.84;98803.13;5016484;28;45207;-79
2021/11/28 04:34:41;;;;;;;;;0.50;0.00;;;;;4.33;79.73;98807.44;5016475;28;45154;-79
2021/11/28 04:37:06;;;;;;;;;0.00;0.00;;;;;4.36;79.47;98806.44;5015835;28;46601;-79
2021/11/28 04:39:31;;;;;;;;;0.00;0.00;;;;;4.34;79.79;98813.56;5019501;28;45134;-79
2021/11/28 04:41:57;;;;;;;;;0.75;0.25;;;;;4.33;79.53;98817.97;5019844;28;45201;-79
2021/11/28 04:44:23;;;;;;;;;0.00;0.00;;;;;4.33;79.81;98810.06;5019809;28;45325;-79
2021/11/28 04:46:51;;;;;;;;;0.50;0.00;;;;;4.31;79.61;98812.78;5019122;28;46085;-79
2021/11/28 04:49:17;;;;;;;;;0.00;0.00;;;;;4.31;79.80;98810.16;5019713;28;45256;-79
2021/11/28 04:51:42;;;;;;;;;0.00;0.00;;;;;4.34;79.86;98822.31;5019361;28;45273;-79
2021/11/28 04:54:08;;;;;;;;;2.00;0.25;;;;;4.29;79.88;98814.69;5019784;28;45131;-79
2021/11/28 04:56:34;;;;;;;;;2.00;0.00;;;;;4.34;79.72;98827.56;5019069;28;45307;-79
2021/11/28 04:59:00;;;;;;;;;0.00;0.00;;;;;4.34;79.80;98829.34;5019330;28;45304;-79
2021/11/28 05:01:26;;;;;;;;;1.00;0.00;;;;;4.32;79.95;98832.09;5019213;28;45356;-79
2021/11/28 05:03:51;;;;;;;;;2.00;0.00;;;;;4.32;79.67;98832.91;5019474;28;45210;-79
2021/11/28 05:06:17;;;;;;;;;2.67;0.00;;;;;4.29;80.04;98821.69;5018948;28;45414;-79
2021/11/28 05:08:42;;;;;;;;;0.25;0.00;;;;;4.36;79.78;98832.72;5019390;28;45241;-79
2021/11/28 05:11:07;;;;;;;;;1.00;0.00;;;;;4.35;80.06;98837.16;5019327;28;45256;-79
2021/11/28 05:13:33;;;;;;;;;0.00;0.00;;;;;4.36;79.85;98835.38;5017653;28;45296;-79
2021/11/28 05:15:58;;;;;;;;;1.00;0.00;;;;;4.35;79.99;98838.94;5018656;28;46199;-79
2021/11/28 05:18:23;;;;;;;;;0.00;0.00;;;;;4.34;80.01;98827.56;5019042;28;45352;-79
2021/11/28 05:20:49;;;;;;;;;0.00;0.00;;;;;4.32;79.75;98829.44;5019061;28;45411;-79
2021/11/28 05:23:15;;;;;;;;;2.00;0.00;;;;;4.31;79.86;98828.59;5019054;28;45310;-79
2021/11/28 05:25:41;;;;;;;;;2.00;0.25;;;;;4.30;79.76;98829.53;5018871;28;46142;-79
2021/11/28 05:28:08;;;;;;;;;0.00;0.00;;;;;4.30;79.94;98826.91;5018731;28;45238;-79
2021/11/28 05:30:35;;;;;;;;;1.25;0.00;;;;;4.30;80.20;98826.91;5018725;28;45205;-79
2021/11/28 05:33:00;;;;;;;;;0.25;0.25;;;;;4.28;80.00;98831.38;5019042;28;45143;-79
2021/11/28 05:35:25;;;;;;;;;0.00;0.00;;;;;4.27;79.90;98839.38;5018664;28;45213;-79
2021/11/28 05:37:51;;;;;;;;;0.00;0.00;;;;;4.20;79.96;98833.59;5018561;28;45225;-79
2021/11/28 05:40:16;;;;;;;;;0.25;0.00;;;;;4.23;80.09;98836.09;5019119;28;45114;-79
2021/11/28 05:42:46;;;;;;;;;0.75;0.00;;;;;4.22;80.23;98833.50;5018681;28;45288;-79
2021/11/28 05:45:12;;;;;;;;;2.00;0.00;;;;;4.26;80.25;98833.28;5018392;28;46507;-79
2021/11/28 05:47:37;;;;;;;;;0.00;0.00;;;;;4.26;80.21;98838.53;5018308;28;45254;-79
2021/11/28 05:50:03;;;;;;;;;1.75;0.00;;;;;4.24;80.37;98837.75;5017864;28;45152;-79
2021/11/28 05:52:28;;;;;;;;;1.50;0.00;;;;;4.28;80.28;98841.06;5018603;28;45392;-79
2021/11/28 05:54:55;;;;;;;;;0.00;0.00;;;;;4.26;80.50;98840.31;5018501;28;45308;-79
2021/11/28 05:57:21;;;;;;;;;0.00;0.00;;;;;4.27;80.10;98840.22;5018458;28;45488;-79
2021/11/28 05:59:46;;;;;;;;;2.50;0.00;;;;;4.25;80.21;98855.25;5018419;28;45340;-79
2021/11/28 06:02:12;;;;;;;;;1.00;1.00;;;;;4.26;80.37;98854.31;5033400;28;45390;-79
2021/11/28 06:04:37;;;;;;;;;0.50;0.00;;;;;4.25;80.34;98860.50;5018087;28;45747;-79
2021/11/28 06:07:02;;;;;;;;;0.00;0.00;;;;;4.25;79.91;98857.88;5018093;28;45325;-79
2021/11/28 06:09:28;;;;;;;;;1.00;0.00;;;;;4.25;80.35;98864.94;5018402;28;45241;-79
2021/11/28 06:11:53;;;;;;;;;0.00;0.00;;;;;4.24;80.35;98866.69;5018342;28;45229;-79
2021/11/28 06:14:18;;;;;;;;;2.50;0.50;;;;;4.21;80.46;98860.78;5018106;28;45503;-79
2021/11/28 06:16:44;;;;;;;;;0.00;0.00;;;;;4.30;80.40;98871.63;5017856;28;45269;-79
2021/11/28 06:19:09;;;;;;;;;2.75;0.50;;;;;4.33;80.35;98870.59;5018417;28;45266;-79
2021/11/28 06:21:35;;;;;;;;;1.50;1.00;;;;;4.38;80.08;98873.81;5018205;28;45205;-79
2021/11/28 06:24:01;;;;;;;;;1.00;0.00;;;;;4.42;79.96;98867.44;5017890;28;46196;-79
2021/11/28 06:26:26;;;;;;;;;0.00;0.00;;;;;4.44;80.17;98877.88;5017899;28;45273;-79
2021/11/28 06:28:51;;;;;;;;;0.50;0.50;;;;;4.49;80.03;98887.22;5018309;28;45281;-79
2021/11/28 06:31:17;;;;;;;;;1.00;1.00;;;;;4.53;79.61;98892.31;5017882;28;45198;-79
2021/11/28 06:33:42;;;;;;;;;0.00;0.00;;;;;4.55;79.62;98878.13;5018100;28;45330;-79
2021/11/28 06:36:07;;;;;;;;;0.00;0.00;;;;;4.59;79.47;98881.41;5017949;28;45194;-79
2021/11/28 06:38:34;;;;;;;;;2.50;0.00;;;;;4.60;79.75;98907.69;5017919;28;45139;-79
2021/11/28 06:41:00;;;;;;;;;1.00;0.00;;;;;4.62;79.51;98883.91;5017629;28;45264;-79
2021/11/28 06:43:25;;;;;;;;;0.00;0.00;;;;;4.61;79.24;98901.44;5017586;28;46141;-79
2021/11/28 06:45:50;;;;;;;;;1.50;1.00;;;;;4.64;78.92;98897.81;5017710;28;45095;-79
2021/11/28 06:48:16;;;;;;;;;0.00;0.00;;;;;4.64;78.59;98893.38;5017871;28;45226;-79
2021/11/28 06:50:41;;;;;;;;;1.00;1.00;;;;;4.66;78.64;98904.69;5017729;28;45204;-79
2021/11/28 06:53:06;;;;;;;;;0.50;0.00;;;;;4.69;78.84;98902.78;5017982;28;46128;-79
2021/11/28 06:55:33;;;;;;;;;0.00;0.00;;;;;4.68;78.69;98901.97;5049182;28;45280;-79
2021/11/28 06:57:58;;;;;;;;;0.00;0.00;;;;;4.70;78.53;98910.59;5017567;28;45264;-79
2021/11/28 07:00:24;;;;;;;;;1.50;0.00;;;;;4.72;78.76;98908.75;5016856;28;45245;-79
2021/11/28 07:02:49;;;;;;;;;2.50;0.00;;;;;4.73;78.32;98909.59;5017090;28;45267;-79
2021/11/28 07:05:14;;;;;;;;;2.67;1.00;;;;;4.75;78.59;98910.38;5017429;28;45194;-79
2021/11/28 07:07:40;;;;;;;;;1.50;0.00;;;;;4.75;78.18;98915.63;5017299;28;45245;-79
2021/11/28 07:10:06;;;;;;;;;2.00;0.00;;;;;4.75;78.34;98919.09;5017528;28;45229;-79
2021/11/28 07:12:32;;;;;;;;;0.25;0.00;;;;;4.76;78.02;98928.69;5017145;28;45383;-79
2021/11/28 07:14:57;;;;;;;;;1.00;0.00;;;;;4.77;77.75;98924.28;5017490;28;45234;-79
2021/11/28 07:17:22;;;;;;;;;0.50;0.50;;;;;4.78;78.33;98929.44;5017415;28;45230;-79
2021/11/28 07:19:48;;;;;;;;;1.00;0.00;;;;;4.76;78.02;98926.06;5017523;28;45306;-79
2021/11/28 07:22:14;;;;;;;;;0.00;0.00;;;;;4.75;78.12;98934.91;5017157;28;46339;-79
2021/11/28 07:24:39;;;;;;;;;0.00;0.00;;;;;4.71;77.50;98943.91;5016841;28;45252;-79
2021/11/28 07:27:04;;;;;;;;;0.75;0.00;;;;;4.67;77.54;98945.00;5016651;28;45286;-79
2021/11/28 07:29:30;;;;;;;;;2.00;0.50;;;;;4.63;77.96;98940.84;5017370;28;45188;-79
2021/11/28 07:31:55;;;;;;;;;0.75;0.75;;;;;4.61;77.71;98954.09;5016895;28;45122;-79
2021/11/28 07:34:20;;;;;;;;;0.00;0.00;;;;;4.60;78.12;98960.31;5017023;28;45143;-79
2021/11/28 07:36:46;;;;;;;;;1.00;1.00;;;;;4.60;77.60;98968.22;5016819;28;45202;-79
2021/11/28 07:39:11;;;;;;;;;2.00;0.50;;;;;4.58;77.77;98966.59;5017064;28;45221;-79
2021/11/28 07:41:37;;;;;;;;;1.25;1.00;;;;;4.60;78.51;98968.22;5016724;28;46122;-79
2021/11/28 07:44:04;;;;;;;;;0.00;0.00;;;;;4.61;77.57;98982.22;5016966;28;45731;-79
2021/11/28 07:46:29;;;;;;;;;1.00;1.00;;;;;4.61;77.92;98974.31;5016799;28;45305;-79
2021/11/28 07:48:55;;;;;;;;;0.00;0.00;;;;;4.56;77.75;98979.84;5017174;28;45202;-79
2021/11/28 07:51:21;;;;;;;;;0.75;0.00;;;;;4.58;77.94;98990.28;5016559;28;46202;-79
2021/11/28 07:53:47;;;;;;;;;2.00;1.00;;;;;4.56;77.82;98987.75;5016652;28;45187;-79
2021/11/28 07:56:13;;;;;;;;;1.00;1.00;;;;;4.58;77.40;98998.19;5016738;28;45273;-79
2021/11/28 07:58:39;;;;;;;;;2.00;0.00;;;;;4.56;77.37;98993.00;5016728;28;45246;-79
2021/11/28 08:01:05;;;;;;;;;1.00;1.00;;;;;4.57;77.42;98997.31;5016252;28;46395;-79
2021/11/28 08:03:31;;;;;;;;;0.75;0.75;;;;;4.55;77.97;99009.72;5016626;28;45604;-79
2021/11/28 08:05:59;;;;;;;;;0.00;0.00;;;;;4.54;77.71;99008.03;5016529;28;45496;-79
2021/11/28 08:08:27;;;;;;;;;2.75;0.50;;;;;4.56;77.95;99018.47;5016569;28;45194;-79
2021/11/28 08:10:53;;;;;;;;;2.75;0.25;;;;;4.55;77.75;99014.16;5016411;28;45258;-79
2021/11/28 08:13:19;;;;;;;;;1.00;1.00;;;;;4.54;77.88;99018.56;5016333;28;45216;-79
2021/11/28 08:15:44;;;;;;;;;0.25;0.25;;;;;4.60;77.41;99023.50;5016165;28;45270;-79
2021/11/28 08:18:10;;;;;;;;;0.75;0.00;;;;;4.57;77.41;99026.28;5016802;28;45218;-79
2021/11/28 08:20:36;;;;;;;;;1.00;1.00;;;;;4.56;77.42;99026.38;5016241;28;46098;-79
2021/11/28 08:23:03;;;;;;;;;1.00;1.00;;;;;4.59;77.33;99024.44;5016343;28;45246;-79
2021/11/28 08:28:08;;;;;;;;;3.75;0.25;;;;;4.58;77.10;99027.16;5434301;22;45725;-79
2021/11/28 08:30:34;;;;;;;;;2.00;1.00;;;;;4.60;77.09;99039.28;5035817;28;45225;-79
2021/11/28 08:32:59;;;;;;;;;2.50;1.00;;;;;4.60;77.50;99038.44;5036208;28;45322;-79
2021/11/28 08:35:25;;;;;;;;;1.00;1.00;;;;;4.59;77.87;99032.31;5035946;28;45177;-79
2021/11/28 08:37:50;;;;;;;;;0.00;0.00;;;;;4.62;77.56;99033.94;5036244;28;45206;-78
2021/11/28 08:40:18;;;;;;;;;1.75;1.00;;;;;4.63;77.39;99035.63;5035982;28;45398;-79
2021/11/28 08:42:44;;;;;;;;;1.00;1.00;;;;;4.64;77.29;99040.81;5035931;28;45253;-79
2021/11/28 08:45:10;;;;;;;;;1.25;1.00;;;;;4.66;77.15;99046.00;5036129;28;45233;-79
2021/11/28 08:47:36;;;;;;;;;3.00;1.00;;;;;4.67;77.51;99045.06;5036033;28;45253;-79
2021/11/28 08:50:06;;;;;;;;;7.00;2.50;;;;;4.68;77.56;99041.50;5035797;28;46396;-79
2021/11/28 08:52:32;;;;;;;;;1.25;1.25;;;;;4.65;77.54;99055.66;5035897;28;45194;-79
2021/11/28 08:54:57;;;;;;;;;1.00;1.00;;;;;4.66;77.45;99056.53;5035936;28;45201;-79
2021/11/28 08:57:23;;;;;;;;;2.00;1.00;;;;;4.70;77.46;99052.78;5035739;28;45503;-79
2021/11/28 08:59:49;;;;;;;;;3.25;2.00;;;;;4.69;77.75;99059.00;5035397;28;45968;-79
2021/11/28 09:02:16;;;;;;;;;3.25;2.25;;;;;4.65;77.77;99047.78;5035541;28;45356;-79
2021/11/28 09:04:51;;;;;;;;;2.50;2.00;;;;;4.61;77.11;99038.34;5035788;28;45194;-81
2021/11/28 09:07:16;;;;;;;;;3.00;3.00;;;;;4.69;77.50;99056.38;5035678;28;45201;-84
2021/11/28 09:09:42;;;;;;;;;1.00;1.00;;;;;4.73;77.48;99057.03;5035262;28;45226;-84
2021/11/28 09:12:07;;;;;;;;;9.00;7.50;;;;;4.73;77.27;99059.66;5035836;28;45111;-84
2021/11/28 09:14:33;;;;;;;;;9.00;7.25;;;;;4.74;77.29;99058.75;5035672;28;45289;-83
2021/11/28 09:16:58;;;;;;;;;6.25;2.25;;;;;4.73;77.24;99068.44;5035750;28;45159;-80
2021/11/28 09:22:00;;;;;;;;;5.50;3.00;;;;;4.75;77.30;99073.59;5034915;28;45324;-81
2021/11/28 09:24:37;;;;;;;;;6.00;3.50;;;;;4.77;77.37;99079.63;5036850;28;45193;-81
2021/11/28 09:27:13;;;;;;;;;4.00;3.00;;;;;4.77;77.20;99079.63;5038701;28;45306;-80
2021/11/28 09:29:43;;;;;;;;;5.50;3.25;;;;;4.75;76.68;99084.97;5038719;28;46600;-79
2021/11/28 09:32:10;;;;;;;;;2.75;1.00;;;;;4.74;77.05;99085.91;5038870;28;45167;-83
2021/11/28 09:34:36;;;;;;;;;3.50;3.00;;;;;4.72;77.10;99086.91;5039035;28;45202;-80
2021/11/28 09:37:02;;;;;;;;;3.25;2.00;;;;;4.73;77.28;99091.25;5038776;28;45268;-80
2021/11/28 09:39:28;;;;;;;;;6.25;4.25;;;;;4.72;77.05;99087.78;5038725;28;45308;-79
2021/11/28 09:42:03;;;;;;;;;2.00;1.00;;;;;4.74;77.36;99108.75;5038639;28;45602;-79
2021/11/28 09:44:32;;;;;;;;;1.50;1.00;;;;;4.74;76.87;99104.34;5038676;28;45158;-80
2021/11/28 09:46:58;;;;;;;;;0.50;0.50;;;;;4.73;76.39;99109.69;5038614;28;45175;-80
2021/11/28 09:49:26;;;;;;;;;7.75;3.00;;;;;4.72;76.30;99119.38;5038486;28;45320;-82
2021/11/28 09:51:54;;;;;;;;;2.00;1.00;;;;;4.69;76.49;99111.66;5038056;28;45761;-80
2021/11/28 09:54:20;;;;;;;;;3.50;3.50;;;;;4.71;76.10;99117.69;5038473;28;45205;-81
2021/11/28 09:56:46;;;;;;;;;3.00;1.25;;;;;4.69;75.68;99108.16;5038407;28;45221;-80
2021/11/28 09:59:13;;;;;;;;;1.50;1.00;;;;;4.73;74.95;99125.50;5038353;28;46134;-81
2021/11/28 10:01:40;;;;;;;;;1.50;0.50;;;;;4.71;74.91;99114.19;5036237;28;46695;-80
2021/11/28 10:04:06;;;;;;;;;0.00;0.00;;;;;4.72;74.57;99123.78;5038188;28;45257;-80
2021/11/28 10:06:32;;;;;;;;;2.00;0.50;;;;;4.71;74.64;99125.56;5037937;28;45187;-81
2021/11/28 10:09:00;;;;;;;;;3.00;1.00;;;;;4.73;74.78;99129.00;5038194;28;46084;-80
2021/11/28 10:11:25;;;;;;;;;3.75;2.75;;;;;4.74;74.60;99128.03;5038234;28;45238;-80
2021/11/28 10:13:53;;;;;;;;;2.25;1.00;;;;;4.74;74.45;99133.31;5037894;28;45209;-80
2021/11/28 10:16:19;;;;;;;;;2.00;1.00;;;;;4.73;74.99;99129.00;5038222;28;45223;-81
2021/11/28 10:18:45;;;;;;;;;3.00;3.00;;;;;4.78;74.50;99144.53;5037659;28;46373;-81
2021/11/28 10:21:10;;;;;;;;;3.00;2.00;;;;;4.78;74.57;99131.38;5037914;28;45223;-81
2021/11/28 10:24:12;;;;;;;;;2.00;1.00;;;;;4.70;74.42;99130.94;5038068;28;45324;-80
2021/11/28 10:26:59;;;;;;;;;2.00;2.00;;;;;4.72;74.19;99143.09;5037350;28;45198;-81
2021/11/28 10:29:29;;;;;;;;;1.00;1.00;;;;;4.69;73.91;99139.75;5037530;28;45440;-80
2021/11/28 10:31:57;;;;;;;;;1.50;1.00;;;;;4.69;74.04;99139.75;5037529;28;45681;-80
2021/11/28 10:34:23;;;;;;;;;1.25;1.25;;;;;4.74;74.27;99143.00;5037719;28;45254;-80
2021/11/28 10:36:51;;;;;;;;;4.00;3.00;;;;;4.76;74.13;99139.34;5037852;28;45172;-79
2021/11/28 10:39:21;;;;;;;;;6.00;3.00;;;;;4.76;74.01;99138.47;5037642;28;45281;-80
2021/11/28 10:41:54;;;;;;;;;4.00;2.50;;;;;4.77;74.37;99140.19;5037519;28;45218;-79
2021/11/28 10:44:23;;;;;;;;;6.50;2.00;;;;;4.78;73.70;99134.84;5037421;28;45566;-81
2021/11/28 10:46:49;;;;;;;;;2.75;2.00;;;;;4.79;73.95;99130.44;5036065;28;45248;-82
2021/11/28 10:49:19;;;;;;;;;1.75;1.00;;;;;4.82;73.88;99141.66;5037086;28;46454;-80
2021/11/28 10:51:48;;;;;;;;;4.25;1.50;;;;;4.83;73.94;99131.94;5037466;28;45692;-79
2021/11/28 10:54:37;;;;;;;;;3.25;0.25;;;;;4.86;74.48;99128.31;5037420;28;45237;-80
2021/11/28 10:57:08;;;;;;;;;2.00;2.00;;;;;4.90;73.97;99124.56;5037100;28;45364;-80
2021/11/28 10:59:40;;;;;;;;;3.25;1.75;;;;;4.92;74.06;99128.81;5037260;28;46024;-80
2021/11/28 11:02:22;;;;;;;;;2.75;2.00;;;;;4.94;74.03;99124.31;5037156;28;45236;-80
2021/11/28 11:04:48;;;;;;;;;2.50;1.75;;;;;4.95;73.81;99119.91;5037323;28;45291;-84
2021/11/28 11:07:14;;;;;;;;;3.75;1.75;;;;;4.95;73.90;99112.00;5037044;28;45174;-80
2021/11/28 11:09:47;;;;;;;;;2.75;1.00;;;;;4.97;73.38;99112.75;5036811;28;46175;-81
2021/11/28 11:12:36;;;;;;;;;3.00;2.00;;;;;4.95;74.08;99117.28;5037567;28;45181;-81
2021/11/28 11:15:02;;;;;;;;;5.25;2.25;;;;;4.91;74.40;99113.94;5035641;28;45276;-81
2021/11/28 11:17:31;;;;;;;;;3.00;1.00;;;;;4.92;73.95;99114.81;5037020;28;45376;-87
2021/11/28 11:19:58;;;;;;;;;2.00;2.00;;;;;4.93;74.46;99120.00;5040464;28;45194;-84
2021/11/28 11:22:30;;;;;;;;;1.00;1.00;;;;;4.91;74.39;99108.69;5037011;28;45269;-85
2021/11/28 11:25:07;;;;;;;;;7.25;2.00;;;;;5.00;74.44;99117.84;5037109;28;45238;-87
2021/11/28 11:27:40;;;;;;;;;7.00;3.00;;;;;5.03;74.79;99122.13;5036828;28;45363;-87
2021/11/28 11:30:09;;;;;;;;;2.00;1.75;;;;;5.08;74.70;99113.03;5037337;28;46127;-85
2021/11/28 11:32:51;;;;;;;;;5.00;2.50;;;;;5.04;74.54;99100.09;5036853;28;45745;-88
2021/11/28 11:35:25;;;;;;;;;4.25;2.00;;;;;5.13;74.94;99116.25;5037213;28;45182;-86
2021/11/28 11:37:53;;;;;;;;;2.50;2.50;;;;;5.18;74.86;99114.19;5037015;28;45369;-88
2021/11/28 11:40:21;;;;;;;;;2.25;2.25;;;;;5.25;74.31;99121.78;5037122;28;47370;-88
2021/11/28 11:42:49;;;;;;;;;2.50;1.50;;;;;5.25;74.34;99121.78;5036530;28;45747;-84
2021/11/28 11:45:17;;;;;;;;;3.75;3.00;;;;;5.21;73.82;99107.06;5052122;28;45214;-85
2021/11/28 11:47:43;;;;;;;;;7.75;3.25;;;;;5.31;73.88;99117.00;5036228;28;45266;-89
2021/11/28 11:50:12;;;;;;;;;5.25;3.00;;;;;5.20;73.81;99095.66;5037073;28;45494;-85
2021/11/28 11:54:21;;;;;;;;;25.25;21.75;;;;;5.29;73.74;99121.50;5132027;27;45182;-88